Time;durP1;ratioP1;P1;durP2;ratioP2;P2;SDS_P1;SDS_P2;PMS_P1;PMS_P2;Temp;Humidity;BMP_temperature;BMP_pressure;BME280_temperature;BME280_humidity;BME280_pressure;Samples;Min_cycle;Max_cycle;Signal;HPM_P1;HPM_P2
2022/09/04 00:00:44;;;;;;;6.30;5.80;;;17.00;99.90;;;;;;6078539;23;20969;-71
2022/09/04 00:03:30;;;;;;;6.20;5.67;;;17.00;99.90;;;;;;6080460;23;20496;-71
2022/09/04 00:06:01;;;;;;;6.00;5.40;;;16.90;99.90;;;;;;6070007;23;20442;-71
2022/09/04 00:08:49;;;;;;;5.77;5.27;;;16.90;99.90;;;;;;6086688;23;20446;-70
2022/09/04 00:11:29;;;;;;;6.67;6.17;;;16.90;99.90;;;;;;6089627;23;20474;-71
2022/09/04 00:14:01;;;;;;;6.90;6.20;;;16.90;99.90;;;;;;6086731;23;20450;-70
2022/09/04 00:16:34;;;;;;;6.60;6.10;;;16.90;99.90;;;;;;6084279;23;20451;-71
2022/09/04 00:19:07;;;;;;;7.20;6.53;;;16.90;99.90;;;;;;6087173;23;20542;-71
2022/09/04 00:21:38;;;;;;;6.80;6.30;;;16.80;99.90;;;;;;6089366;23;20880;-70
2022/09/04 00:24:10;;;;;;;6.73;6.23;;;16.80;99.90;;;;;;6073004;23;20516;-71
2022/09/04 00:26:44;;;;;;;7.63;7.03;;;16.80;99.90;;;;;;6088778;23;20495;-70
2022/09/04 00:29:20;;;;;;;7.53;6.93;;;16.80;99.90;;;;;;6085971;23;20466;-71
2022/09/04 00:31:52;;;;;;;7.03;6.47;;;16.80;99.90;;;;;;6086640;23;21051;-71
2022/09/04 00:34:47;;;;;;;6.87;6.37;;;16.70;99.90;;;;;;6089259;23;20450;-71
2022/09/04 00:37:19;;;;;;;8.07;7.17;;;16.80;99.90;;;;;;6088545;23;20463;-71
2022/09/04 00:39:54;;;;;;;8.43;7.73;;;16.80;99.90;;;;;;6084600;23;20923;-71
2022/09/04 00:42:44;;;;;;;7.73;7.13;;;16.70;99.90;;;;;;6086331;23;20984;-71
2022/09/04 00:45:28;;;;;;;7.40;6.70;;;16.80;99.90;;;;;;6086902;23;20449;-71
2022/09/04 00:48:32;;;;;;;6.97;6.40;;;16.80;99.90;;;;;;6083305;23;20488;-71
2022/09/04 00:51:28;;;;;;;8.90;8.00;;;16.70;99.90;;;;;;6086181;23;20981;-71
2022/09/04 00:54:17;;;;;;;8.03;7.40;;;16.70;99.90;;;;;;6079932;23;20514;-71
2022/09/04 00:57:17;;;;;;;8.23;7.43;;;16.70;99.90;;;;;;6089672;23;20450;-70
2022/09/04 01:00:06;;;;;;;8.37;7.67;;;16.70;99.90;;;;;;6085236;23;20492;-71
2022/09/04 01:03:02;;;;;;;8.30;7.50;;;16.70;99.90;;;;;;6087173;23;20502;-71
2022/09/04 01:05:50;;;;;;;8.03;7.33;;;16.70;99.90;;;;;;6075300;23;20450;-71
2022/09/04 01:08:33;;;;;;;9.63;8.70;;;16.70;99.90;;;;;;6083574;23;20442;-71
2022/09/04 01:11:10;;;;;;;8.83;8.03;;;16.70;99.90;;;;;;6088928;23;20450;-70
2022/09/04 01:13:42;;;;;;;9.40;8.60;;;16.60;99.90;;;;;;6083610;23;20536;-70
2022/09/04 01:16:14;;;;;;;9.27;8.47;;;16.60;99.90;;;;;;6075556;23;20439;-71
2022/09/04 01:18:51;;;;;;;10.13;9.30;;;16.60;99.90;;;;;;6084072;23;20450;-71
2022/09/04 01:21:57;;;;;;;8.93;8.20;;;16.60;99.90;;;;;;6081503;23;20463;-71
2022/09/04 01:24:51;;;;;;;9.40;8.70;;;16.60;99.90;;;;;;6088811;23;20438;-71
2022/09/04 01:27:26;;;;;;;9.73;8.93;;;16.60;99.90;;;;;;6089428;23;20458;-71
2022/09/04 01:30:06;;;;;;;9.23;8.33;;;16.50;99.90;;;;;;6087437;23;20484;-71
2022/09/04 01:32:43;;;;;;;10.00;9.27;;;16.50;99.90;;;;;;6082580;23;20853;-71
2022/09/04 01:35:21;;;;;;;8.10;7.50;;;16.50;99.90;;;;;;6085607;23;20841;-71
2022/09/04 01:37:57;;;;;;;9.10;8.10;;;16.40;99.90;;;;;;6081551;23;20473;-71
2022/09/04 01:40:34;;;;;;;7.97;7.27;;;16.50;99.90;;;;;;6086079;23;20472;-70
2022/09/04 01:43:09;;;;;;;8.57;7.87;;;16.40;99.90;;;;;;6080432;23;21035;-71
2022/09/04 01:46:09;;;;;;;8.37;7.77;;;16.40;99.90;;;;;;6088437;23;20445;-71
2022/09/04 01:48:44;;;;;;;9.50;8.70;;;16.60;99.90;;;;;;6079592;23;20514;-71
2022/09/04 01:51:18;;;;;;;9.40;8.60;;;16.30;99.90;;;;;;6087994;23;20462;-72
2022/09/04 01:53:49;;;;;;;9.60;8.87;;;16.30;99.90;;;;;;6086705;23;20466;-70
2022/09/04 01:56:24;;;;;;;8.77;8.17;;;16.30;99.90;;;;;;6086575;23;20460;-72
2022/09/04 01:58:56;;;;;;;8.03;7.43;;;16.30;99.90;;;;;;6072357;23;20462;-71
2022/09/04 02:01:30;;;;;;;8.27;7.43;;;16.20;99.90;;;;;;6083017;23;20454;-71
2022/09/04 02:04:06;;;;;;;8.57;7.77;;;16.20;99.90;;;;;;6084471;23;20477;-71
2022/09/04 02:06:43;;;;;;;8.60;7.90;;;16.20;99.90;;;;;;6081008;23;20503;-71
2022/09/04 02:09:25;;;;;;;8.30;7.60;;;16.20;99.90;;;;;;6082411;23;20441;-71
2022/09/04 02:12:03;;;;;;;9.17;8.43;;;16.20;99.90;;;;;;6088974;23;20496;-70
2022/09/04 02:14:41;;;;;;;10.20;9.40;;;16.20;99.90;;;;;;6086010;23;20445;-70
2022/09/04 02:17:11;;;;;;;10.27;9.47;;;16.10;99.90;;;;;;6086869;23;20442;-71
2022/09/04 02:20:00;;;;;;;11.50;10.40;;;16.10;99.90;;;;;;6086631;23;20940;-71
2022/09/04 02:22:35;;;;;;;10.40;9.53;;;16.10;99.90;;;;;;6068984;23;20521;-71
2022/09/04 02:25:12;;;;;;;9.77;9.03;;;16.10;99.90;;;;;;6089039;23;20454;-71
2022/09/04 02:27:50;;;;;;;12.73;11.53;;;16.00;99.90;;;;;;6084739;23;20456;-71
2022/09/04 02:30:20;;;;;;;10.60;9.70;;;16.20;99.90;;;;;;6080270;23;20492;-71
2022/09/04 02:32:55;;;;;;;11.50;10.60;;;16.00;99.90;;;;;;6086848;23;20461;-71
2022/09/04 02:35:30;;;;;;;11.10;10.20;;;16.00;99.90;;;;;;6066091;23;20438;-71
2022/09/04 02:38:09;;;;;;;11.27;10.27;;;16.00;99.90;;;;;;6088652;23;20528;-71
2022/09/04 02:40:44;;;;;;;11.00;10.10;;;16.00;99.90;;;;;;6088131;23;20503;-71
2022/09/04 02:43:27;;;;;;;13.23;12.00;;;15.90;99.90;;;;;;6085016;23;20501;-71
2022/09/04 02:46:04;;;;;;;11.03;10.07;;;15.90;99.90;;;;;;6082396;23;20878;-70
2022/09/04 02:48:40;;;;;;;11.90;10.90;;;15.90;99.90;;;;;;6083420;23;20495;-71
2022/09/04 02:51:19;;;;;;;12.77;11.57;;;15.80;99.90;;;;;;6082902;23;21171;-71
2022/09/04 02:53:59;;;;;;;10.77;9.87;;;15.80;99.90;;;;;;6071898;23;20445;-71
2022/09/04 02:56:39;;;;;;;10.70;9.80;;;15.90;99.90;;;;;;6074885;23;20940;-71
2022/09/04 02:59:20;;;;;;;13.47;12.27;;;15.90;99.90;;;;;;6086030;23;20454;-71
2022/09/04 03:01:56;;;;;;;10.47;9.57;;;15.90;99.90;;;;;;6086956;23;20504;-71
2022/09/04 03:04:30;;;;;;;10.20;9.40;;;15.90;99.90;;;;;;6086564;23;20496;-71
2022/09/04 03:07:02;;;;;;;10.33;9.53;;;15.90;99.90;;;;;;6085915;23;20438;-71
2022/09/04 03:09:37;;;;;;;11.50;10.50;;;15.90;99.90;;;;;;6085487;23;21208;-71
2022/09/04 03:12:25;;;;;;;11.40;10.27;;;15.90;99.90;;;;;;6086736;23;20560;-71
2022/09/04 03:15:01;;;;;;;11.17;10.17;;;15.90;99.90;;;;;;6087488;23;20442;-72
2022/09/04 03:17:36;;;;;;;12.77;11.73;;;15.90;99.90;;;;;;6086217;23;20480;-71
2022/09/04 03:20:09;;;;;;;11.53;10.60;;;15.90;99.90;;;;;;6077080;23;20438;-71
2022/09/04 03:22:43;;;;;;;12.97;11.40;;;15.80;99.90;;;;;;6089378;23;20560;-71
2022/09/04 03:25:43;;;;;;;14.30;11.97;;;15.80;99.90;;;;;;6080870;23;20445;-71
2022/09/04 03:28:20;;;;;;;12.40;11.30;;;16.00;99.90;;;;;;6089876;23;20864;-71
2022/09/04 03:30:49;;;;;;;22.57;14.03;;;15.80;99.90;;;;;;6077513;23;20473;-70
2022/09/04 03:33:23;;;;;;;12.23;11.23;;;15.70;99.90;;;;;;6077810;23;20442;-71
2022/09/04 03:36:00;;;;;;;12.80;11.70;;;15.70;99.90;;;;;;6088024;23;20449;-71
2022/09/04 03:38:32;;;;;;;11.50;10.60;;;15.70;99.90;;;;;;6089653;23;20521;-71
2022/09/04 03:41:13;;;;;;;10.87;10.00;;;15.60;99.90;;;;;;6087003;23;20504;-71
2022/09/04 03:43:54;;;;;;;10.97;10.07;;;15.60;99.90;;;;;;6085932;23;20482;-71
2022/09/04 03:46:32;;;;;;;14.30;13.03;;;15.60;99.90;;;;;;6086728;23;20445;-71
2022/09/04 03:49:13;;;;;;;12.63;11.33;;;15.60;99.90;;;;;;6089558;23;20481;-71
2022/09/04 03:51:53;;;;;;;12.77;11.60;;;15.60;99.90;;;;;;6087237;23;22045;-71
2022/09/04 03:54:35;;;;;;;12.30;11.10;;;15.50;99.90;;;;;;6080195;23;20535;-72
2022/09/04 03:57:14;;;;;;;12.00;11.00;;;15.50;99.90;;;;;;6088537;23;20860;-71
2022/09/04 03:59:54;;;;;;;16.23;12.93;;;15.50;99.90;;;;;;6084839;23;20477;-71
2022/09/04 04:02:29;;;;;;;14.20;12.70;;;15.50;99.90;;;;;;6086556;23;20987;-71
2022/09/04 04:05:25;;;;;;;12.93;11.70;;;15.50;99.90;;;;;;6087954;23;20475;-71
2022/09/04 04:08:10;;;;;;;10.30;9.57;;;15.50;99.90;;;;;;6075848;23;20475;-71
2022/09/04 04:10:51;;;;;;;12.57;11.47;;;15.50;99.90;;;;;;6071469;23;20434;-71
2022/09/04 04:13:40;;;;;;;13.43;12.27;;;15.50;99.90;;;;;;6087659;23;20481;-71
2022/09/04 04:16:22;;;;;;;12.27;11.30;;;15.40;99.90;;;;;;6067186;23;20466;-71
2022/09/04 04:19:00;;;;;;;13.27;12.07;;;15.40;99.90;;;;;;6074058;23;20443;-71
2022/09/04 04:21:39;;;;;;;13.10;11.90;;;15.40;99.90;;;;;;6085251;23;20510;-71
2022/09/04 04:24:37;;;;;;;12.50;11.37;;;15.40;99.90;;;;;;6085524;23;20504;-71
2022/09/04 04:27:17;;;;;;;14.47;13.23;;;15.40;99.90;;;;;;6086551;23;20805;-71
2022/09/04 04:29:58;;;;;;;12.97;11.70;;;15.30;99.90;;;;;;6091004;23;20449;-70
2022/09/04 04:32:41;;;;;;;19.00;13.03;;;15.40;99.90;;;;;;6086638;23;20458;-71
2022/09/04 04:35:17;;;;;;;18.53;12.07;;;15.40;99.90;;;;;;6077401;23;20489;-71
2022/09/04 04:38:00;;;;;;;53.17;14.10;;;15.40;99.90;;;;;;6078998;23;20505;-72
2022/09/04 04:40:41;;;;;;;110.20;15.73;;;15.30;99.90;;;;;;6086585;23;20448;-71
2022/09/04 04:43:19;;;;;;;101.93;14.70;;;15.30;99.90;;;;;;6086887;23;20523;-71
2022/09/04 04:45:54;;;;;;;44.60;12.90;;;15.30;99.90;;;;;;6080299;23;20457;-71
2022/09/04 04:48:59;;;;;;;76.17;12.40;;;15.20;99.90;;;;;;6088071;23;20516;-71
2022/09/04 04:51:41;;;;;;;34.80;11.73;;;15.20;99.90;;;;;;6081534;23;20455;-71
2022/09/04 04:54:25;;;;;;;10.70;9.67;;;15.10;99.90;;;;;;6080832;23;20469;-72
2022/09/04 04:57:00;;;;;;;32.47;13.37;;;15.10;99.90;;;;;;6086631;23;20961;-72
2022/09/04 04:59:34;;;;;;;11.93;10.93;;;15.10;99.90;;;;;;6088594;23;20491;-72
2022/09/04 05:02:09;;;;;;;13.63;12.17;;;15.10;99.90;;;;;;6083543;23;20553;-71
2022/09/04 05:04:45;;;;;;;16.30;13.10;;;15.00;99.90;;;;;;6087226;23;20529;-72
2022/09/04 05:07:23;;;;;;;14.70;13.27;;;15.10;99.90;;;;;;6085836;23;20453;-72
2022/09/04 05:10:01;;;;;;;18.13;12.60;;;15.10;99.90;;;;;;6084620;23;20475;-72
2022/09/04 05:12:43;;;;;;;14.20;12.90;;;15.20;99.90;;;;;;6085710;23;21045;-71
2022/09/04 05:15:17;;;;;;;23.70;12.87;;;15.10;99.90;;;;;;6087006;23;20442;-71
2022/09/04 05:17:52;;;;;;;25.90;13.30;;;15.10;99.90;;;;;;6085886;23;20831;-71
2022/09/04 05:20:29;;;;;;;15.37;12.80;;;15.10;99.90;;;;;;6086507;23;20445;-71
2022/09/04 05:23:15;;;;;;;24.67;13.03;;;15.10;99.90;;;;;;6087470;23;20477;-72
2022/09/04 05:25:50;;;;;;;42.90;15.30;;;15.20;99.90;;;;;;6081706;23;20462;-71
2022/09/04 05:28:26;;;;;;;59.77;16.00;;;15.10;99.90;;;;;;6087490;23;20547;-71
2022/09/04 05:31:04;;;;;;;19.57;12.07;;;15.10;99.90;;;;;;6086578;23;21008;-71
2022/09/04 05:33:40;;;;;;;31.00;12.83;;;15.10;99.90;;;;;;6091502;23;20425;-71
2022/09/04 05:36:16;;;;;;;34.00;14.13;;;15.10;99.90;;;;;;6084274;23;20446;-71
2022/09/04 05:38:53;;;;;;;27.27;13.23;;;15.10;99.90;;;;;;6089029;23;20470;-71
2022/09/04 05:41:36;;;;;;;20.37;12.77;;;15.10;99.90;;;;;;6086043;23;20494;-72
2022/09/04 05:44:28;;;;;;;18.03;12.63;;;15.10;99.90;;;;;;6087454;23;20466;-72
2022/09/04 05:47:06;;;;;;;16.53;12.07;;;15.10;99.90;;;;;;6084907;23;20510;-72
2022/09/04 05:49:49;;;;;;;15.17;13.83;;;15.10;99.90;;;;;;6086250;23;20521;-73
2022/09/04 05:52:32;;;;;;;13.20;12.10;;;15.20;99.90;;;;;;6088776;23;20499;-72
2022/09/04 05:55:24;;;;;;;13.13;12.07;;;15.20;99.90;;;;;;6085534;23;20462;-72
2022/09/04 05:58:17;;;;;;;13.13;12.03;;;15.20;99.90;;;;;;6088393;23;20438;-70
2022/09/04 06:00:54;;;;;;;12.43;11.43;;;15.30;99.90;;;;;;6080038;23;20449;-70
2022/09/04 06:03:46;;;;;;;12.53;11.43;;;15.30;99.90;;;;;;6087962;23;20534;-70
2022/09/04 06:06:21;;;;;;;11.20;10.30;;;15.30;99.90;;;;;;6086229;23;20476;-70
2022/09/04 06:09:13;;;;;;;13.63;12.37;;;15.30;99.90;;;;;;6089390;23;20438;-70
2022/09/04 06:11:58;;;;;;;13.87;12.77;;;15.40;99.90;;;;;;6087247;23;20533;-71
2022/09/04 06:14:53;;;;;;;10.63;9.87;;;15.50;99.90;;;;;;6082478;23;20446;-71
2022/09/04 06:17:37;;;;;;;10.00;9.10;;;15.60;99.90;;;;;;6081794;23;20442;-71
2022/09/04 06:20:24;;;;;;;10.00;9.20;;;15.60;99.90;;;;;;6079483;23;20540;-71
2022/09/04 06:23:13;;;;;;;10.00;9.20;;;15.70;99.90;;;;;;6083131;23;20482;-71
2022/09/04 06:26:28;;;;;;;8.80;8.20;;;15.80;99.90;;;;;;6029632;23;20439;-70
2022/09/04 06:29:28;;;;;;;8.10;7.57;;;15.90;99.90;;;;;;5993179;23;20447;-70
2022/09/04 06:32:29;;;;;;;8.23;7.63;;;16.10;99.90;;;;;;6084693;23;21003;-70
2022/09/04 06:35:23;;;;;;;7.57;7.07;;;16.40;99.90;;;;;;6086874;23;20462;-72
2022/09/04 06:38:06;;;;;;;6.57;6.07;;;16.50;99.90;;;;;;6087867;23;20442;-70
2022/09/04 06:40:48;;;;;;;6.80;6.20;;;16.60;99.90;;;;;;6087356;23;20450;-70
2022/09/04 06:43:26;;;;;;;6.50;6.00;;;16.80;99.90;;;;;;6078584;23;20509;-70
2022/09/04 06:46:05;;;;;;;6.27;5.87;;;17.20;99.90;;;;;;6077891;23;20875;-70
2022/09/04 06:48:48;;;;;;;5.90;5.40;;;17.40;99.90;;;;;;6072217;23;20446;-70
2022/09/04 06:51:28;;;;;;;5.27;4.77;;;17.70;99.90;;;;;;6088878;23;20537;-71
2022/09/04 06:54:09;;;;;;;4.77;4.37;;;18.10;99.90;;;;;;6062771;23;20545;-68
2022/09/04 06:56:54;;;;;;;4.90;4.50;;;18.50;99.90;;;;;;6063558;23;20482;-68
2022/09/04 06:59:37;;;;;;;5.20;4.80;;;18.90;99.90;;;;;;6081719;23;20443;-70
2022/09/04 07:02:18;;;;;;;4.60;4.20;;;19.20;99.90;;;;;;6090311;23;20524;-70
2022/09/04 07:04:57;;;;;;;5.00;4.60;;;19.70;99.90;;;;;;6076394;23;20469;-69
2022/09/04 07:07:34;;;;;;;5.53;4.60;;;20.10;99.90;;;;;;6074067;23;20442;-68
2022/09/04 07:10:10;;;;;;;4.27;3.97;;;20.30;99.90;;;;;;6078914;23;20533;-68
2022/09/04 07:13:22;;;;;;;4.20;3.87;;;20.50;99.90;;;;;;6078173;23;21053;-67
2022/09/04 07:16:14;;;;;;;4.43;4.10;;;20.80;99.90;;;;;;6086024;23;20952;-69
2022/09/04 07:19:06;;;;;;;3.73;3.43;;;21.20;99.90;;;;;;6081209;23;20470;-69
2022/09/04 07:21:48;;;;;;;3.73;3.53;;;21.50;99.90;;;;;;6083170;23;20462;-69
2022/09/04 07:24:48;;;;;;;3.83;3.53;;;21.90;99.90;;;;;;6079030;23;20513;-69
2022/09/04 07:27:24;;;;;;;4.10;3.80;;;22.30;99.90;;;;;;6083946;23;20513;-68
2022/09/04 07:29:59;;;;;;;4.27;3.97;;;22.70;99.90;;;;;;6086400;23;20925;-69
2022/09/04 07:32:37;;;;;;;3.63;3.33;;;23.00;99.90;;;;;;6086168;23;20458;-68
2022/09/04 07:35:11;;;;;;;3.80;3.50;;;23.20;99.90;;;;;;6085917;23;20498;-69
2022/09/04 07:37:48;;;;;;;4.53;3.73;;;23.40;99.90;;;;;;6080975;23;20475;-68
2022/09/04 07:40:19;;;;;;;3.30;3.10;;;23.70;99.90;;;;;;6085309;23;20491;-69
2022/09/04 07:42:50;;;;;;;3.57;3.37;;;23.90;99.90;;;;;;6075951;23;20444;-69
2022/09/04 07:45:31;;;;;;;4.60;4.20;;;24.00;99.90;;;;;;6087779;23;20476;-69
2022/09/04 07:48:12;;;;;;;4.00;3.70;;;23.80;99.90;;;;;;6086312;23;20498;-69
2022/09/04 07:51:03;;;;;;;3.90;3.60;;;24.10;99.90;;;;;;6069989;23;20513;-69
2022/09/04 07:54:06;;;;;;;3.77;3.47;;;24.40;99.90;;;;;;6086289;23;20477;-69
2022/09/04 07:56:53;;;;;;;3.83;3.40;;;24.60;99.90;;;;;;6079903;23;20488;-68
2022/09/04 07:59:37;;;;;;;3.97;3.67;;;24.80;99.90;;;;;;6072749;23;20442;-69
2022/09/04 08:02:19;;;;;;;3.27;3.03;;;25.10;99.90;;;;;;6078438;23;20568;-68
2022/09/04 08:05:11;;;;;;;3.77;3.30;;;24.90;99.90;;;;;;6081713;23;20458;-68
2022/09/04 08:08:10;;;;;;;3.50;3.30;;;25.00;99.90;;;;;;6056822;23;20462;-67
2022/09/04 08:10:47;;;;;;;3.40;3.10;;;25.10;99.90;;;;;;6063204;23;20836;-67
2022/09/04 08:13:32;;;;;;;3.37;3.17;;;25.30;99.90;;;;;;6075882;23;20477;-67
2022/09/04 08:16:06;;;;;;;3.80;3.50;;;25.50;99.90;;;;;;6084706;23;20434;-67
2022/09/04 08:18:55;;;;;;;3.83;3.30;;;25.40;99.90;;;;;;6082270;23;20487;-67
2022/09/04 08:21:28;;;;;;;3.60;3.30;;;25.70;99.90;;;;;;6084533;23;20454;-67
2022/09/04 08:24:19;;;;;;;4.03;3.73;;;25.60;99.90;;;;;;6086956;23;20524;-67
2022/09/04 08:27:01;;;;;;;3.40;3.10;;;25.50;99.90;;;;;;6079254;23;20447;-67
2022/09/04 08:29:42;;;;;;;3.10;2.90;;;25.50;99.90;;;;;;6078908;23;20473;-67
2022/09/04 08:32:22;;;;;;;2.80;2.60;;;25.90;99.90;;;;;;6084691;23;20473;-67
2022/09/04 08:35:19;;;;;;;4.23;3.83;;;26.30;99.90;;;;;;6088011;23;20470;-67
2022/09/04 08:38:02;;;;;;;3.53;3.23;;;26.50;99.90;;;;;;6075053;23;20431;-68
2022/09/04 08:40:53;;;;;;;3.00;2.80;;;26.80;99.90;;;;;;6080760;23;20500;-67
2022/09/04 08:43:44;;;;;;;3.57;3.30;;;27.20;99.90;;;;;;6088546;23;20447;-67
2022/09/04 08:47:00;;;;;;;3.13;2.77;;;27.70;99.90;;;;;;6080656;23;20937;-68
2022/09/04 08:49:50;;;;;;;2.90;2.70;;;27.60;99.90;;;;;;6060098;23;20435;-68
2022/09/04 08:52:45;;;;;;;3.07;2.80;;;28.10;99.90;;;;;;6084226;23;20493;-68
2022/09/04 08:55:44;;;;;;;3.00;2.80;;;28.70;99.90;;;;;;6077749;23;20998;-71
2022/09/04 08:58:49;;;;;;;2.73;2.53;;;28.90;99.90;;;;;;6067638;23;20431;-70
2022/09/04 09:02:02;;;;;;;2.17;2.07;;;28.40;99.90;;;;;;6082601;23;20490;-70
2022/09/04 09:05:19;;;;;;;2.70;2.50;;;27.90;99.90;;;;;;6068738;23;20493;-70
2022/09/04 09:08:26;;;;;;;2.27;2.07;;;27.80;99.90;;;;;;6086555;23;20430;-70
2022/09/04 09:11:38;;;;;;;1.77;1.67;;;28.30;99.90;;;;;;6086396;23;20470;-70
2022/09/04 09:14:37;;;;;;;2.40;2.20;;;28.90;99.90;;;;;;6077164;23;20445;-70
2022/09/04 09:17:12;;;;;;;2.50;2.30;;;29.00;99.90;;;;;;6074498;23;21052;-70
2022/09/04 09:19:45;;;;;;;2.10;2.00;;;29.30;99.90;;;;;;6089289;23;21070;-71
2022/09/04 09:22:47;;;;;;;2.10;1.90;;;29.40;99.90;;;;;;6069937;23;20483;-72
2022/09/04 09:25:20;;;;;;;1.87;1.77;;;29.70;99.90;;;;;;6088177;23;20470;-77
2022/09/04 09:28:43;;;;;;;2.00;1.90;;;30.10;99.90;;;;;;6084496;23;20435;-73
2022/09/04 09:31:48;;;;;;;2.30;2.00;;;30.30;99.50;;;;;;6067904;23;20458;-74
2022/09/04 09:35:02;;;;;;;2.10;1.90;;;30.60;99.90;;;;;;6028597;23;20438;-74
2022/09/04 09:38:14;;;;;;;1.43;1.33;;;30.50;98.80;;;;;;6091790;23;20852;-74
2022/09/04 09:41:15;;;;;;;1.53;1.43;;;30.90;98.60;;;;;;6081553;23;20841;-73
2022/09/04 09:44:11;;;;;;;1.50;1.40;;;31.30;95.90;;;;;;6091612;23;20488;-74
2022/09/04 09:47:06;;;;;;;2.40;1.77;;;31.40;95.30;;;;;;6090926;23;20444;-73
2022/09/04 09:50:02;;;;;;;1.60;1.50;;;30.80;95.30;;;;;;6088085;23;20444;-73
2022/09/04 09:52:59;;;;;;;1.87;1.77;;;30.60;95.70;;;;;;6077284;23;20454;-73
2022/09/04 09:55:51;;;;;;;1.80;1.70;;;30.80;95.00;;;;;;6056183;23;20454;-74
2022/09/04 09:58:44;;;;;;;1.87;1.60;;;31.20;95.00;;;;;;6091460;23;20427;-74
2022/09/04 10:01:29;;;;;;;2.73;1.57;;;31.90;94.30;;;;;;6089923;23;20538;-73
2022/09/04 10:04:21;;;;;;;1.60;1.50;;;32.20;92.10;;;;;;6091533;23;20458;-73
2022/09/04 10:07:23;;;;;;;2.60;1.60;;;31.60;93.60;;;;;;6087036;23;20497;-74
2022/09/04 10:10:45;;;;;;;1.37;1.27;;;32.10;92.70;;;;;;6060753;23;20986;-74
2022/09/04 10:13:46;;;;;;;2.73;1.70;;;32.60;90.70;;;;;;6083430;23;20439;-74
2022/09/04 10:16:32;;;;;;;1.67;1.40;;;32.40;90.00;;;;;;6079713;23;20477;-74
2022/09/04 10:19:29;;;;;;;1.83;1.63;;;31.80;90.30;;;;;;6091380;23;20484;-73
2022/09/04 10:22:19;;;;;;;1.60;1.50;;;31.20;90.20;;;;;;6060039;23;20487;-73
2022/09/04 10:25:19;;;;;;;1.40;1.30;;;31.10;88.90;;;;;;6085059;23;20535;-74
2022/09/04 10:28:08;;;;;;;1.50;1.40;;;31.40;90.30;;;;;;6087845;23;20474;-73
2022/09/04 10:31:07;;;;;;;1.50;1.30;;;31.50;89.90;;;;;;6064458;23;20852;-74
2022/09/04 10:33:48;;;;;;;1.40;1.30;;;31.50;88.90;;;;;;6089576;23;20442;-74
2022/09/04 10:36:29;;;;;;;1.47;1.37;;;32.00;88.80;;;;;;6090151;23;20438;-74
2022/09/04 10:42:15;;;;;;;1.77;1.40;;;32.00;87.90;;;;;;6086076;23;20501;-74
2022/09/04 10:44:55;;;;;;;3.87;1.33;;;31.70;87.00;;;;;;6088996;23;20550;-74
2022/09/04 10:47:35;;;;;;;1.40;1.30;;;31.80;86.50;;;;;;6086611;23;20861;-74
2022/09/04 10:50:21;;;;;;;1.57;1.47;;;32.30;84.50;;;;;;6083571;23;20516;-74
2022/09/04 10:53:14;;;;;;;1.53;1.43;;;32.40;85.30;;;;;;6083391;23;20469;-74
2022/09/04 10:56:04;;;;;;;1.30;1.20;;;32.80;83.30;;;;;;6081497;23;20523;-73
2022/09/04 10:58:56;;;;;;;1.90;1.27;;;33.10;79.30;;;;;;6089014;23;20525;-73
2022/09/04 11:02:02;;;;;;;1.40;1.30;;;33.00;78.70;;;;;;6089951;23;20452;-74
2022/09/04 11:05:02;;;;;;;1.40;1.30;;;33.10;77.90;;;;;;6074597;23;20484;-74
2022/09/04 11:07:57;;;;;;;1.37;1.27;;;33.60;76.20;;;;;;6047571;23;20822;-74
2022/09/04 11:10:42;;;;;;;1.40;1.20;;;33.80;73.90;;;;;;6088618;23;20829;-74
2022/09/04 11:13:50;;;;;;;1.63;1.20;;;34.00;75.30;;;;;;6089484;23;20846;-74
2022/09/04 11:16:48;;;;;;;1.60;1.17;;;34.30;72.40;;;;;;6092231;23;20827;-74
2022/09/04 11:19:59;;;;;;;1.30;1.20;;;34.20;69.60;;;;;;6089943;23;20532;-74
2022/09/04 11:23:12;;;;;;;1.70;1.13;;;33.90;71.70;;;;;;6011109;23;20483;-74
2022/09/04 11:26:07;;;;;;;1.10;1.00;;;33.90;70.90;;;;;;6088380;23;20469;-74
2022/09/04 11:29:09;;;;;;;1.53;1.43;;;33.90;70.10;;;;;;6073215;23;20524;-74
2022/09/04 11:31:58;;;;;;;1.57;1.40;;;33.70;70.40;;;;;;6082770;23;20623;-74
2022/09/04 11:35:05;;;;;;;1.70;1.60;;;33.90;69.10;;;;;;6087045;23;20438;-74
2022/09/04 11:37:58;;;;;;;1.60;1.50;;;34.20;67.80;;;;;;6063458;23;20428;-74
2022/09/04 11:41:07;;;;;;;1.40;1.30;;;34.40;68.00;;;;;;6071253;23;20493;-74
2022/09/04 11:44:18;;;;;;;1.20;1.10;;;34.70;68.00;;;;;;6092072;23;20465;-74
2022/09/04 11:47:10;;;;;;;1.57;1.30;;;35.00;63.90;;;;;;6071345;23;21151;-74
2022/09/04 11:50:22;;;;;;;1.13;1.03;;;34.80;63.60;;;;;;6092453;23;20419;-74
2022/09/04 11:53:21;;;;;;;1.40;1.23;;;34.70;63.30;;;;;;6068340;23;20458;-73
2022/09/04 11:56:20;;;;;;;1.30;1.20;;;34.50;65.00;;;;;;6091576;23;20488;-73
2022/09/04 11:59:10;;;;;;;1.20;1.10;;;34.30;64.40;;;;;;6092763;23;20423;-74
2022/09/04 12:02:06;;;;;;;1.63;1.47;;;33.80;65.50;;;;;;6083274;23;20517;-73
2022/09/04 12:04:46;;;;;;;1.47;1.30;;;33.30;67.70;;;;;;6085090;23;20445;-73
2022/09/04 12:07:30;;;;;;;1.37;1.27;;;32.70;67.40;;;;;;6091121;23;20438;-73
2022/09/04 12:10:20;;;;;;;2.07;1.50;;;32.10;68.90;;;;;;6090866;23;20446;-73
2022/09/04 12:13:16;;;;;;;1.43;1.33;;;31.50;68.50;;;;;;6091438;23;20929;-73
2022/09/04 12:16:12;;;;;;;1.40;1.30;;;31.10;68.30;;;;;;6090764;23;20430;-74
2022/09/04 12:18:59;;;;;;;1.30;1.20;;;30.90;68.70;;;;;;6087699;23;20813;-74
2022/09/04 12:21:58;;;;;;;1.33;1.23;;;31.20;70.20;;;;;;6089834;23;20463;-74
2022/09/04 12:24:59;;;;;;;1.20;1.10;;;32.00;68.50;;;;;;6084685;23;20443;-74
2022/09/04 12:27:57;;;;;;;1.30;1.03;;;32.80;68.10;;;;;;6062748;23;20498;-74
2022/09/04 12:30:32;;;;;;;1.30;1.20;;;33.50;63.80;;;;;;6079956;23;20458;-74
2022/09/04 12:33:32;;;;;;;1.30;1.20;;;33.80;61.80;;;;;;6089011;23;20504;-74
2022/09/04 12:36:21;;;;;;;1.50;1.40;;;34.10;61.20;;;;;;6090902;23;20469;-75
2022/09/04 12:39:33;;;;;;;1.93;1.50;;;34.50;61.80;;;;;;6063129;23;20427;-74
2022/09/04 12:42:08;;;;;;;1.30;1.20;;;34.60;62.40;;;;;;5992564;23;20545;-74
2022/09/04 12:44:49;;;;;;;1.53;1.43;;;34.80;61.10;;;;;;6084998;23;20461;-74
2022/09/04 12:47:29;;;;;;;1.43;1.33;;;34.70;60.30;;;;;;6082920;23;20458;-73
2022/09/04 12:50:17;;;;;;;1.63;1.27;;;34.80;61.10;;;;;;6091878;23;20472;-74
2022/09/04 12:53:11;;;;;;;2.07;1.87;;;34.50;61.30;;;;;;6089131;23;20800;-73
2022/09/04 12:55:45;;;;;;;1.70;1.60;;;34.40;59.60;;;;;;6090836;23;20434;-73
2022/09/04 12:58:25;;;;;;;1.27;1.07;;;34.10;61.30;;;;;;6092185;23;20426;-74
2022/09/04 13:01:08;;;;;;;1.50;1.40;;;34.10;61.30;;;;;;6081949;23;20538;-74
2022/09/04 13:03:40;;;;;;;1.60;1.40;;;33.70;62.50;;;;;;6091667;23;20765;-73
2022/09/04 13:06:21;;;;;;;1.33;1.23;;;32.90;62.90;;;;;;6081067;23;20479;-74
2022/09/04 13:08:59;;;;;;;1.67;1.57;;;32.10;63.70;;;;;;6090322;23;20939;-73
2022/09/04 13:11:43;;;;;;;1.40;1.30;;;31.50;65.50;;;;;;6091141;23;20458;-73
2022/09/04 13:14:52;;;;;;;1.90;1.50;;;30.90;67.10;;;;;;6078774;23;20455;-74
2022/09/04 13:17:26;;;;;;;1.70;1.60;;;30.40;68.70;;;;;;6063790;23;20557;-73
2022/09/04 13:20:04;;;;;;;2.53;1.50;;;30.30;70.20;;;;;;6069062;23;20464;-74
2022/09/04 13:22:41;;;;;;;1.80;1.70;;;30.80;69.10;;;;;;6081687;23;20442;-74
2022/09/04 13:25:15;;;;;;;2.50;1.47;;;31.40;66.90;;;;;;6073291;23;20473;-74
2022/09/04 13:27:57;;;;;;;2.23;2.03;;;32.30;66.60;;;;;;6091580;23;20417;-74
2022/09/04 13:30:25;;;;;;;1.87;1.67;;;33.10;64.20;;;;;;6062881;23;20586;-73
2022/09/04 13:33:17;;;;;;;1.40;1.30;;;33.80;63.10;;;;;;6067390;23;20927;-74
2022/09/04 13:36:09;;;;;;;1.70;1.33;;;34.50;60.90;;;;;;6066643;23;20473;-74
2022/09/04 13:39:09;;;;;;;1.93;1.83;;;35.00;60.00;;;;;;6078756;23;20980;-74
2022/09/04 13:42:07;;;;;;;1.60;1.50;;;35.40;59.30;;;;;;6090411;23;20466;-74
2022/09/04 13:44:53;;;;;;;1.47;1.37;;;35.70;58.00;;;;;;6084894;23;20445;-74
2022/09/04 13:47:22;;;;;;;1.60;1.50;;;36.00;56.90;;;;;;6091884;23;20426;-74
2022/09/04 13:49:56;;;;;;;1.50;1.40;;;36.30;56.80;;;;;;6090479;23;20914;-74
2022/09/04 13:52:30;;;;;;;1.50;1.40;;;36.50;56.60;;;;;;6088395;23;20481;-74
2022/09/04 13:55:03;;;;;;;1.50;1.40;;;36.80;55.30;;;;;;6091614;23;20434;-74
2022/09/04 13:57:39;;;;;;;1.60;1.30;;;37.10;55.80;;;;;;6089353;23;20866;-75
2022/09/04 14:00:10;;;;;;;1.63;1.53;;;37.70;54.80;;;;;;6090892;23;20410;-74
2022/09/04 14:02:40;;;;;;;1.40;1.30;;;38.10;54.00;;;;;;6074105;23;20476;-74
2022/09/04 14:05:12;;;;;;;1.40;1.30;;;38.60;51.80;;;;;;6090678;23;20496;-74
2022/09/04 14:07:41;;;;;;;1.57;1.40;;;38.90;52.10;;;;;;6087572;23;20953;-74
2022/09/04 14:10:13;;;;;;;1.27;1.17;;;39.40;50.60;;;;;;6088150;23;20797;-74
2022/09/04 14:13:04;;;;;;;1.43;1.33;;;39.40;51.00;;;;;;6092236;23;20770;-74
2022/09/04 14:15:58;;;;;;;1.50;1.40;;;39.40;50.10;;;;;;6088159;23;20481;-74